Time;durP1;ratioP1;P1;durP2;ratioP2;P2;SDS_P1;SDS_P2;PMS_P1;PMS_P2;Temp;Humidity;BMP_temperature;BMP_pressure;BME280_temperature;BME280_humidity;BME280_pressure;Samples;Min_cycle;Max_cycle;Signal;HPM_P1;HPM_P2
2022/12/28 00:01:23;;;;;;;1999.90;999.90;;;;;;;6.63;100.00;99129.19;5082802;28;20055;-86
2022/12/28 00:03:50;;;;;;;1999.90;999.90;;;;;;;6.53;100.00;99116.22;5082714;28;20044;-83
2022/12/28 00:06:17;;;;;;;1999.90;999.90;;;;;;;6.51;100.00;99117.53;5081122;28;20569;-89
2022/12/28 00:08:43;;;;;;;1999.90;999.90;;;;;;;6.46;100.00;99116.34;5081919;28;20516;-88
2022/12/28 00:11:12;;;;;;;1999.90;999.90;;;;;;;6.42;100.00;99107.00;5078390;28;20024;-87
2022/12/28 00:13:37;;;;;;;1999.90;999.90;;;;;;;6.37;100.00;99098.78;5080115;28;20078;-83
2022/12/28 00:16:17;;;;;;;1999.90;999.90;;;;;;;6.35;100.00;99106.34;5080355;28;20032;-83
2022/12/28 00:18:42;;;;;;;1999.90;999.90;;;;;;;6.29;100.00;99107.31;5082424;28;20043;-88
2022/12/28 00:21:07;;;;;;;1999.90;999.90;;;;;;;6.32;100.00;99106.81;5084069;28;20480;-85
2022/12/28 00:23:32;;;;;;;1999.90;999.90;;;;;;;6.34;100.00;99101.97;5086612;28;20055;-86
2022/12/28 00:26:10;;;;;;;1999.90;999.90;;;;;;;6.47;100.00;99107.13;5085220;28;20029;-83
2022/12/28 00:28:35;;;;;;;1999.90;999.90;;;;;;;6.42;100.00;99096.16;5082105;28;20028;-86
2022/12/28 00:31:01;;;;;;;1999.90;999.90;;;;;;;6.46;100.00;99107.38;5081896;28;20541;-86
2022/12/28 00:33:27;;;;;;;1999.90;999.90;;;;;;;6.58;100.00;99113.59;5082020;28;20481;-85
2022/12/28 00:35:53;;;;;;;1999.90;999.90;;;;;;;6.58;100.00;99108.16;5082247;28;20082;-81
2022/12/28 00:38:18;;;;;;;1999.90;999.90;;;;;;;6.54;100.00;99104.28;5080329;28;20024;-85
2022/12/28 00:40:44;;;;;;;1999.90;999.90;;;;;;;6.58;100.00;99112.78;5079605;28;20043;-87
2022/12/28 00:43:09;;;;;;;1999.90;999.90;;;;;;;6.56;100.00;99117.63;5081083;28;20088;-87
2022/12/28 00:45:34;;;;;;;1999.90;999.90;;;;;;;6.50;100.00;99116.69;5081309;28;20030;-84
2022/12/28 00:47:59;;;;;;;1999.90;999.90;;;;;;;6.61;100.00;99120.47;5082610;28;20099;-85
2022/12/28 00:50:25;;;;;;;1999.90;999.90;;;;;;;6.67;100.00;99119.50;5078942;28;20048;-83
2022/12/28 00:52:50;;;;;;;1999.90;999.90;;;;;;;6.70;100.00;99124.44;5077168;28;20029;-82
2022/12/28 00:55:15;;;;;;;1999.90;999.90;;;;;;;6.59;100.00;99122.56;5087703;28;20046;-81
2022/12/28 00:57:41;;;;;;;1999.90;999.90;;;;;;;6.67;100.00;99122.22;5085818;28;20028;-82
2022/12/28 01:00:06;;;;;;;1999.90;999.90;;;;;;;6.65;100.00;99122.44;5083469;28;20092;-84
2022/12/28 01:02:32;;;;;;;1999.90;999.90;;;;;;;6.72;100.00;99134.00;5083826;28;20073;-85
2022/12/28 01:04:57;;;;;;;1999.90;999.90;;;;;;;6.71;100.00;99128.78;5084272;28;20031;-87
2022/12/28 01:07:22;;;;;;;1999.90;999.90;;;;;;;6.66;100.00;99126.81;5083445;28;20049;-83
2022/12/28 01:09:48;;;;;;;1999.90;999.90;;;;;;;6.67;100.00;99130.38;5083762;28;20039;-80
2022/12/28 01:12:13;;;;;;;1999.90;999.90;;;;;;;6.65;100.00;99132.47;5085236;28;20031;-87
2022/12/28 01:14:38;;;;;;;1999.90;999.90;;;;;;;6.58;100.00;99126.38;5082672;28;20078;-86
2022/12/28 01:17:03;;;;;;;1999.90;999.90;;;;;;;6.56;100.00;99133.94;5084377;28;20525;-81
2022/12/28 01:19:29;;;;;;;1999.90;999.90;;;;;;;6.57;100.00;99135.59;5085390;28;20115;-81
2022/12/28 01:21:56;;;;;;;1999.90;999.90;;;;;;;6.50;100.00;99118.59;5085737;28;20073;-81
2022/12/28 01:24:22;;;;;;;1999.90;999.90;;;;;;;6.58;100.00;99124.47;5085244;28;20075;-87
2022/12/28 01:26:47;;;;;;;1999.90;999.90;;;;;;;6.56;100.00;99121.16;5085548;28;20025;-81
2022/12/28 01:29:12;;;;;;;1999.90;999.90;;;;;;;6.53;100.00;99123.53;5083067;28;20418;-81
2022/12/28 01:31:38;;;;;;;1999.90;999.90;;;;;;;6.49;100.00;99112.31;5083258;28;20033;-84
2022/12/28 01:34:03;;;;;;;1999.90;999.90;;;;;;;6.42;100.00;99109.72;5082983;28;20055;-82
2022/12/28 01:36:31;;;;;;;1999.90;999.90;;;;;;;6.43;100.00;99113.28;5082186;28;20024;-85
2022/12/28 01:38:59;;;;;;;1999.90;999.90;;;;;;;6.42;100.00;99112.44;5076317;28;20042;-85
2022/12/28 01:41:27;;;;;;;1999.90;999.90;;;;;;;6.38;100.00;99103.16;5079062;28;20789;-86
2022/12/28 01:43:52;;;;;;;1999.90;999.90;;;;;;;6.31;100.00;99091.59;5079583;28;20604;-87
2022/12/28 01:46:23;;;;;;;1999.90;999.90;;;;;;;6.32;100.00;99085.09;5075316;28;20020;-84
2022/12/28 01:49:03;;;;;;;1999.90;999.90;;;;;;;6.30;100.00;99083.66;5074381;28;20024;-85
2022/12/28 01:51:36;;;;;;;1999.90;999.90;;;;;;;6.26;100.00;99080.63;5076913;28;20032;-84
2022/12/28 01:54:03;;;;;;;1999.90;999.90;;;;;;;6.41;100.00;99078.22;5077623;28;20016;-85
2022/12/28 01:56:28;;;;;;;1999.90;999.90;;;;;;;6.43;100.00;99078.78;5079257;28;20029;-86
2022/12/28 01:58:55;;;;;;;1999.90;999.90;;;;;;;6.41;100.00;99083.66;5078110;28;20085;-82
2022/12/28 02:01:20;;;;;;;1999.90;999.90;;;;;;;6.41;100.00;99083.66;5084358;28;20426;-84
2022/12/28 02:03:45;;;;;;;1999.90;999.90;;;;;;;6.36;100.00;99078.09;5081507;28;20099;-82
2022/12/28 02:06:12;;;;;;;1999.90;999.90;;;;;;;6.38;100.00;99081.41;5083862;28;20047;-83
2022/12/28 02:08:45;;;;;;;1999.90;999.90;;;;;;;6.33;100.00;99081.28;5088731;28;20028;-86
2022/12/28 02:11:13;;;;;;;1999.90;999.90;;;;;;;6.18;100.00;99077.44;5086287;28;20064;-89
2022/12/28 02:13:39;;;;;;;1999.90;999.90;;;;;;;6.07;100.00;99073.69;5084062;28;20444;-86
2022/12/28 02:16:05;;;;;;;1999.90;999.90;;;;;;;6.13;100.00;99064.56;5083105;28;20040;-88
2022/12/28 02:18:30;;;;;;;1999.90;999.90;;;;;;;6.07;100.00;99054.69;5082403;28;20032;-87
2022/12/28 02:21:17;;;;;;;1999.90;999.90;;;;;;;5.97;100.00;99049.03;5078992;28;20477;-86
2022/12/28 02:24:10;;;;;;;1999.90;999.90;;;;;;;5.99;100.00;99054.19;5076176;28;20028;-81
2022/12/28 02:26:54;;;;;;;1999.90;999.90;;;;;;;5.92;100.00;99046.19;5077799;28;20024;-81
2022/12/28 02:29:43;;;;;;;1999.90;999.90;;;;;;;5.83;100.00;99044.84;5077514;28;20033;-86
2022/12/28 02:32:29;;;;;;;1999.90;999.90;;;;;;;5.73;100.00;99039.22;5078210;28;20028;-80
2022/12/28 02:35:08;;;;;;;1999.90;999.90;;;;;;;5.65;100.00;99034.97;5080278;28;20381;-85
2022/12/28 02:37:46;;;;;;;1999.90;999.90;;;;;;;5.58;100.00;99033.44;5078090;28;20024;-81
2022/12/28 02:40:25;;;;;;;1999.90;999.90;;;;;;;5.53;100.00;99019.75;5077737;28;20107;-80
2022/12/28 02:42:53;;;;;;;1999.90;999.90;;;;;;;5.46;100.00;99024.47;5078376;28;20489;-77
2022/12/28 02:51:04;;;;;;;1999.90;999.90;;;;;;;5.33;100.00;99023.66;5080585;28;20043;-85
2022/12/28 02:53:42;;;;;;;1999.90;999.90;;;;;;;5.35;100.00;99024.25;5082277;28;20027;-83
2022/12/28 02:56:26;;;;;;;1999.90;999.90;;;;;;;5.32;100.00;99021.19;5079772;28;20413;-80
2022/12/28 02:59:03;;;;;;;1999.90;999.90;;;;;;;5.25;100.00;99017.75;5078771;28;20032;-85
2022/12/28 03:01:46;;;;;;;1999.90;999.90;;;;;;;5.16;100.00;99014.56;5074504;28;20025;-82
2022/12/28 03:04:16;;;;;;;1999.90;999.90;;;;;;;5.03;100.00;99013.94;5077638;28;20029;-84
2022/12/28 03:09:45;;;;;;;1999.90;999.90;;;;;;;5.00;100.00;99009.81;5076589;28;20052;-82
2022/12/28 03:12:39;;;;;;;1999.90;999.90;;;;;;;4.98;100.00;99001.09;5074686;28;20029;-75
2022/12/28 03:15:28;;;;;;;1999.90;999.90;;;;;;;5.07;100.00;99004.28;5073477;28;20111;-75
2022/12/28 03:31:47;;;;;;;1999.90;999.90;;;;;;;5.05;100.00;98992.84;5077539;28;20062;-75
2022/12/28 03:34:13;;;;;;;1999.90;999.90;;;;;;;5.09;100.00;98986.72;5073221;28;20016;-76
2022/12/28 03:36:43;;;;;;;1999.90;999.90;;;;;;;5.00;100.00;98987.31;5071890;28;20028;-75
2022/12/28 03:39:14;;;;;;;1999.90;999.90;;;;;;;4.91;100.00;98981.41;5072957;28;20013;-76
2022/12/28 03:44:58;;;;;;;1999.90;999.90;;;;;;;4.79;100.00;98986.00;5072635;28;20058;-75
2022/12/28 03:47:25;;;;;;;1999.90;999.90;;;;;;;4.71;100.00;98970.06;5072726;28;20024;-75
2022/12/28 03:49:51;;;;;;;1999.90;999.90;;;;;;;4.69;100.00;98980.31;5072522;28;20036;-74
2022/12/28 03:52:16;;;;;;;1999.90;999.90;;;;;;;4.59;100.00;98983.56;5072792;28;20171;-77
2022/12/28 03:54:42;;;;;;;1999.90;999.90;;;;;;;4.64;100.00;98994.53;5072681;28;20047;-75
2022/12/28 03:57:08;;;;;;;1999.90;999.90;;;;;;;4.52;100.00;98990.13;5072635;28;20023;-75
2022/12/28 03:59:33;;;;;;;1999.90;999.90;;;;;;;4.49;100.00;98990.59;5072591;28;20021;-74
2022/12/28 04:01:58;;;;;;;1999.90;999.90;;;;;;;4.45;100.00;98984.81;5072563;28;20029;-76
2022/12/28 04:04:23;;;;;;;1999.90;999.90;;;;;;;4.42;100.00;98982.56;5072547;28;20048;-76
2022/12/28 04:06:49;;;;;;;1999.90;999.90;;;;;;;4.48;100.00;98980.84;5072148;28;20068;-77
2022/12/28 04:09:14;;;;;;;1999.90;999.90;;;;;;;4.38;100.00;98984.09;5072309;28;20530;-76
2022/12/28 04:11:39;;;;;;;1999.90;999.90;;;;;;;4.35;100.00;98989.97;5072280;28;20449;-74
2022/12/28 04:14:05;;;;;;;1999.90;999.90;;;;;;;4.24;100.00;98983.47;5072261;28;20032;-75
2022/12/28 04:16:31;;;;;;;1999.90;999.90;;;;;;;4.16;100.00;98981.09;5071193;28;20020;-74
2022/12/28 04:18:56;;;;;;;1999.90;999.90;;;;;;;4.05;100.00;98970.19;5072492;28;20482;-74
2022/12/28 04:21:21;;;;;;;1999.90;999.90;;;;;;;4.06;100.00;98975.38;5072302;28;20031;-77
2022/12/28 04:23:47;;;;;;;1999.90;999.90;;;;;;;3.99;100.00;98974.63;5072016;28;20114;-76
2022/12/28 04:26:14;;;;;;;1999.90;999.90;;;;;;;3.97;100.00;98979.44;5071966;28;20392;-75
2022/12/28 04:28:39;;;;;;;1999.90;999.90;;;;;;;3.95;100.00;98978.00;5071969;28;20052;-75
2022/12/28 04:31:06;;;;;;;1999.90;999.90;;;;;;;3.92;100.00;98973.03;5071813;28;20055;-76
2022/12/28 04:33:35;;;;;;;1999.90;999.90;;;;;;;3.83;100.00;98975.25;5071958;28;20034;-75
2022/12/28 04:36:05;;;;;;;1999.90;999.90;;;;;;;3.71;100.00;98961.66;5071896;28;20044;-75
2022/12/28 04:38:31;;;;;;;1999.90;999.90;;;;;;;3.62;100.00;98963.03;5072692;28;20034;-75
2022/12/28 04:40:56;;;;;;;1999.90;999.90;;;;;;;3.59;100.00;98968.03;5075783;28;20036;-76
2022/12/28 04:43:22;;;;;;;1999.90;999.90;;;;;;;3.63;100.00;98964.66;5075583;28;20027;-76
2022/12/28 04:45:58;;;;;;;1999.90;999.90;;;;;;;3.71;100.00;98972.47;5072140;28;20060;-75
2022/12/28 04:48:23;;;;;;;1999.90;999.90;;;;;;;3.64;100.00;98979.00;5070284;28;20028;-75
2022/12/28 04:50:49;;;;;;;1999.90;999.90;;;;;;;3.65;100.00;98984.22;5071574;28;20024;-75
2022/12/28 04:53:14;;;;;;;1999.90;999.90;;;;;;;3.58;100.00;98979.91;5070717;28;20032;-77
2022/12/28 04:55:39;;;;;;;1999.90;999.90;;;;;;;3.53;100.00;98969.78;5069873;28;20033;-76
2022/12/28 04:58:05;;;;;;;1999.90;999.90;;;;;;;3.61;100.00;98974.03;5070166;28;20067;-77
2022/12/28 05:00:30;;;;;;;1999.90;999.90;;;;;;;3.50;100.00;98969.41;5070886;28;20036;-76
2022/12/28 05:02:58;;;;;;;1999.90;999.90;;;;;;;3.52;100.00;98972.69;5071449;28;20035;-75
2022/12/28 05:05:23;;;;;;;1999.90;999.90;;;;;;;3.35;100.00;98971.66;5070078;28;20059;-78
2022/12/28 05:07:49;;;;;;;1999.90;999.90;;;;;;;3.50;100.00;98974.81;5071346;28;20083;-74
2022/12/28 05:10:15;;;;;;;1999.90;999.90;;;;;;;3.44;100.00;98968.44;5071604;28;20083;-75
2022/12/28 05:12:41;;;;;;;1999.90;999.90;;;;;;;3.38;100.00;98969.31;5071051;28;20443;-76
2022/12/28 05:15:06;;;;;;;1999.90;999.90;;;;;;;3.40;100.00;98960.97;5071156;28;20031;-75
2022/12/28 05:17:32;;;;;;;1999.90;999.90;;;;;;;3.28;100.00;98960.91;5073254;28;20393;-77
2022/12/28 05:19:57;;;;;;;1999.90;999.90;;;;;;;3.20;100.00;98959.31;5076548;28;20111;-74
2022/12/28 05:22:22;;;;;;;1999.90;999.90;;;;;;;3.12;100.00;98967.72;5071422;28;20524;-75
2022/12/28 05:24:48;;;;;;;1999.90;999.90;;;;;;;3.19;100.00;98973.88;5070908;28;20477;-75
2022/12/28 05:27:13;;;;;;;1999.90;999.90;;;;;;;3.20;100.00;98971.97;5069663;28;20470;-75
2022/12/28 05:29:38;;;;;;;1999.90;999.90;;;;;;;3.29;100.00;98975.25;5070456;28;20032;-75
2022/12/28 05:32:04;;;;;;;1999.90;999.90;;;;;;;3.24;100.00;98987.53;5069864;28;20096;-75
2022/12/28 05:34:29;;;;;;;1999.90;999.90;;;;;;;3.20;100.00;98980.09;5070637;28;20029;-75
2022/12/28 05:36:55;;;;;;;1999.90;999.90;;;;;;;3.22;100.00;98986.13;5069215;28;20531;-76
2022/12/28 05:39:20;;;;;;;1999.90;999.90;;;;;;;3.23;100.00;98996.69;5069159;28;20016;-76
2022/12/28 05:41:45;;;;;;;1999.90;999.90;;;;;;;3.31;100.00;98992.06;5070868;28;20024;-76
2022/12/28 05:44:11;;;;;;;1999.90;999.90;;;;;;;3.20;100.00;98986.34;5069739;28;20028;-78
2022/12/28 05:46:36;;;;;;;1999.90;999.90;;;;;;;3.27;100.00;98988.13;5063374;28;20060;-81
2022/12/28 05:49:01;;;;;;;1999.90;999.90;;;;;;;3.30;100.00;98983.13;5051255;28;20021;-79
2022/12/28 05:51:29;;;;;;;1999.90;999.90;;;;;;;3.12;100.00;98983.94;5059925;28;20496;-74
2022/12/28 05:53:55;;;;;;;1999.90;999.90;;;;;;;3.13;100.00;98982.84;5071231;28;20029;-78
2022/12/28 05:56:26;;;;;;;1999.90;999.90;;;;;;;3.01;100.00;98984.63;5070415;28;20457;-78
2022/12/28 05:58:56;;;;;;;1999.90;999.90;;;;;;;3.06;100.00;98974.00;5070386;28;20443;-76
2022/12/28 06:01:24;;;;;;;1999.90;999.90;;;;;;;3.17;100.00;98969.72;5069017;28;20012;-76
2022/12/28 06:03:55;;;;;;;1999.90;999.90;;;;;;;3.32;100.00;98977.50;5059079;28;20036;-74
2022/12/28 06:06:21;;;;;;;1999.90;999.90;;;;;;;3.27;100.00;98970.06;5049885;28;20045;-76
2022/12/28 06:08:48;;;;;;;1999.90;999.90;;;;;;;3.16;100.00;98963.50;5050520;28;20127;-76
2022/12/28 06:11:16;;;;;;;1999.90;999.90;;;;;;;3.07;100.00;98970.22;5048615;28;20033;-75
2022/12/28 06:13:42;;;;;;;1999.90;999.90;;;;;;;3.05;100.00;98966.09;5051350;28;20021;-76
2022/12/28 06:16:18;;;;;;;1999.90;999.90;;;;;;;3.04;100.00;98962.56;5050389;28;20032;-74
2022/12/28 06:18:44;;;;;;;1999.90;999.90;;;;;;;3.08;100.00;98965.66;5050194;28;20036;-75
2022/12/28 06:21:15;;;;;;;1999.90;999.90;;;;;;;3.09;100.00;98968.16;5050282;28;20482;-76
2022/12/28 06:23:41;;;;;;;1999.90;999.90;;;;;;;3.03;100.00;98963.66;5057884;28;20044;-84
2022/12/28 06:26:07;;;;;;;1999.90;999.90;;;;;;;3.11;100.00;98966.03;5062592;28;20093;-86
2022/12/28 06:28:36;;;;;;;1999.90;999.90;;;;;;;3.11;100.00;98963.34;5066092;28;20032;-82
2022/12/28 06:31:25;;;;;;;1999.90;999.90;;;;;;;3.14;100.00;98949.38;5064334;28;20039;-82
2022/12/28 06:33:53;;;;;;;1999.90;999.90;;;;;;;3.15;100.00;98956.44;5065172;28;20744;-84
2022/12/28 06:36:22;;;;;;;1999.90;999.90;;;;;;;3.20;100.00;98951.19;5068673;28;20039;-79
2022/12/28 06:38:48;;;;;;;1999.90;999.90;;;;;;;3.26;100.00;98946.75;5070769;28;20031;-81
2022/12/28 06:41:14;;;;;;;1999.90;999.90;;;;;;;3.33;100.00;98930.47;5089156;28;20054;-85
2022/12/28 06:43:44;;;;;;;1999.90;999.90;;;;;;;3.25;100.00;98920.81;5091391;28;20020;-83
2022/12/28 06:46:10;;;;;;;1999.90;999.90;;;;;;;3.43;100.00;98920.81;5091040;28;20027;-85
2022/12/28 06:48:36;;;;;;;1999.90;999.90;;;;;;;3.26;100.00;98917.03;5091728;28;20040;-86
2022/12/28 06:51:13;;;;;;;1999.90;999.90;;;;;;;3.28;100.00;98908.72;5092594;28;20039;-85
2022/12/28 06:53:38;;;;;;;1999.90;999.90;;;;;;;3.32;100.00;98901.81;5094313;28;20055;-85
2022/12/28 06:56:06;;;;;;;1999.90;999.90;;;;;;;3.67;100.00;98922.56;5085792;28;20024;-82
2022/12/28 06:58:32;;;;;;;1999.90;999.90;;;;;;;3.86;100.00;98923.38;5078439;28;20038;-80
2022/12/28 07:01:08;;;;;;;1999.90;999.90;;;;;;;3.91;100.00;98928.94;5078425;28;20037;-82
2022/12/28 07:03:33;;;;;;;1999.90;999.90;;;;;;;3.86;100.00;98936.91;5082751;28;20035;-83
2022/12/28 07:06:00;;;;;;;1999.90;999.90;;;;;;;3.86;100.00;98934.19;5083626;28;20123;-79
2022/12/28 07:08:26;;;;;;;1999.90;999.90;;;;;;;3.94;100.00;98923.06;5082245;28;20528;-83
2022/12/28 07:10:51;;;;;;;1999.90;999.90;;;;;;;4.51;100.00;98934.34;5081138;28;20032;-85
2022/12/28 07:13:16;;;;;;;1999.90;999.90;;;;;;;5.55;100.00;98941.66;5082876;28;20111;-84
2022/12/28 07:15:42;;;;;;;1999.90;999.90;;;;;;;6.41;100.00;98939.63;5080892;28;20013;-82
2022/12/28 07:18:07;;;;;;;1999.90;999.90;;;;;;;7.40;100.00;98957.03;5078571;28;20054;-82
2022/12/28 07:20:32;;;;;;;1999.90;999.90;;;;;;;7.84;100.00;98951.63;5079360;28;20032;-80
2022/12/28 07:22:58;;;;;;;1999.90;999.90;;;;;;;7.80;100.00;98961.41;5082506;28;20071;-87
2022/12/28 07:25:23;;;;;;;1999.90;999.90;;;;;;;7.50;100.00;98956.34;5078835;28;20035;-85
2022/12/28 07:27:48;;;;;;;1999.90;999.90;;;;;;;6.82;100.00;98945.78;5085667;28;20024;-86
2022/12/28 07:30:14;;;;;;;1999.90;999.90;;;;;;;6.46;100.00;98955.19;5083226;28;20478;-82
2022/12/28 07:32:39;;;;;;;1999.90;999.90;;;;;;;5.98;100.00;98957.53;5079372;28;20074;-81
2022/12/28 07:35:06;;;;;;;1999.90;999.90;;;;;;;5.52;100.00;98959.22;5077166;28;20367;-78
2022/12/28 07:37:31;;;;;;;1999.90;999.90;;;;;;;5.50;100.00;98949.69;5073244;28;20035;-77
2022/12/28 07:39:57;;;;;;;1999.90;999.90;;;;;;;4.97;100.00;98939.81;5075134;28;20017;-76
2022/12/28 07:42:22;;;;;;;1999.90;999.90;;;;;;;4.83;100.00;98930.25;5074097;28;20111;-78
2022/12/28 07:44:47;;;;;;;1999.90;999.90;;;;;;;5.04;100.00;98939.69;5072996;28;20511;-77
2022/12/28 07:47:13;;;;;;;1999.90;999.90;;;;;;;4.71;100.00;98929.41;5072709;28;20020;-76
2022/12/28 07:49:39;;;;;;;1999.90;999.90;;;;;;;4.58;100.00;98935.88;5073075;28;20931;-78
2022/12/28 07:52:05;;;;;;;1999.90;999.90;;;;;;;4.59;100.00;98936.69;5072401;28;20074;-77
2022/12/28 07:54:30;;;;;;;1999.90;999.90;;;;;;;4.72;100.00;98937.31;5073170;28;20029;-75
2022/12/28 07:56:55;;;;;;;1999.90;999.90;;;;;;;5.20;100.00;98950.66;5072277;28;20024;-85
2022/12/28 07:59:21;;;;;;;1999.90;999.90;;;;;;;5.20;100.00;98957.97;5077182;28;20033;-80
2022/12/28 08:01:49;;;;;;;1999.90;999.90;;;;;;;5.09;100.00;98935.22;5082817;28;20385;-84
2022/12/28 08:04:15;;;;;;;1999.90;999.90;;;;;;;5.29;100.00;98954.66;5083631;28;20028;-80
2022/12/28 08:06:42;;;;;;;1999.90;999.90;;;;;;;5.70;100.00;98953.66;5074148;28;20078;-81
2022/12/28 08:09:10;;;;;;;1999.90;999.90;;;;;;;5.92;100.00;98959.28;5072645;28;20530;-78
2022/12/28 08:11:39;;;;;;;1999.90;999.90;;;;;;;5.91;100.00;98953.06;5072394;28;20020;-80
2022/12/28 08:14:05;;;;;;;1999.90;999.90;;;;;;;5.60;100.00;98936.34;5073307;28;20591;-82
2022/12/28 08:16:36;;;;;;;1999.90;999.90;;;;;;;5.52;100.00;98952.97;5071266;28;20492;-80
2022/12/28 08:19:01;;;;;;;1999.90;999.90;;;;;;;5.62;100.00;98964.06;5071502;28;20555;-75
2022/12/28 08:21:30;;;;;;;1999.90;999.90;;;;;;;5.74;100.00;98971.13;5070483;28;20032;-75
2022/12/28 08:23:57;;;;;;;1999.90;999.90;;;;;;;5.86;100.00;98968.41;5072614;28;20024;-81
2022/12/28 08:26:25;;;;;;;1999.90;999.90;;;;;;;5.95;100.00;98975.13;5073318;28;20020;-85
2022/12/28 08:28:52;;;;;;;1999.90;999.90;;;;;;;5.98;100.00;98980.09;5076860;28;20023;-86
2022/12/28 08:31:20;;;;;;;1999.90;999.90;;;;;;;6.90;100.00;98976.09;5077677;28;20081;-80
2022/12/28 08:33:46;;;;;;;1999.90;999.90;;;;;;;8.70;100.00;98977.16;5078697;28;20029;-87
2022/12/28 08:36:12;;;;;;;1999.90;999.90;;;;;;;9.20;100.00;98984.97;5078920;28;20086;-85
2022/12/28 08:38:39;;;;;;;1999.90;999.90;;;;;;;8.74;100.00;98978.31;5077051;28;20036;-78
2022/12/28 08:41:06;;;;;;;1999.90;999.90;;;;;;;8.19;100.00;98982.03;5071960;28;20025;-79
2022/12/28 08:43:32;;;;;;;1999.90;999.90;;;;;;;8.16;100.00;98988.00;5071052;28;20083;-81
2022/12/28 08:46:04;;;;;;;1999.90;999.90;;;;;;;7.62;100.00;98981.56;5076407;28;20473;-76
2022/12/28 08:48:31;;;;;;;1999.90;999.90;;;;;;;7.28;100.00;98978.06;5071263;28;20078;-77
2022/12/28 08:51:01;;;;;;;1999.90;999.90;;;;;;;7.12;100.00;98986.22;5070793;28;20020;-76
2022/12/28 08:53:27;;;;;;;1999.90;999.90;;;;;;;7.06;100.00;98993.50;5069925;28;20485;-84
2022/12/28 08:55:52;;;;;;;1999.90;999.90;;;;;;;6.79;100.00;98987.88;5075030;28;20129;-78
2022/12/28 08:58:17;;;;;;;1999.90;999.90;;;;;;;6.67;100.00;98997.16;5071241;28;20138;-81
2022/12/28 09:00:43;;;;;;;1999.90;999.90;;;;;;;6.47;100.00;98995.72;5075609;28;20028;-77
2022/12/28 09:03:08;;;;;;;1999.90;999.90;;;;;;;6.26;100.00;98996.41;5073806;28;20104;-81
2022/12/28 09:05:37;;;;;;;1999.90;999.90;;;;;;;6.32;100.00;99000.03;5078987;28;20107;-88
2022/12/28 09:08:03;;;;;;;1999.90;999.90;;;;;;;6.39;100.00;98998.81;5080114;28;20393;-82
2022/12/28 09:10:28;;;;;;;1999.90;999.90;;;;;;;6.53;100.00;98988.47;5081839;28;20032;-86
2022/12/28 09:12:53;;;;;;;1999.90;999.90;;;;;;;6.54;100.00;98978.44;5078762;28;20031;-83
2022/12/28 09:15:19;;;;;;;1999.90;999.90;;;;;;;6.41;100.00;98969.53;5083564;28;20024;-85
2022/12/28 09:17:44;;;;;;;1999.90;999.90;;;;;;;6.34;100.00;98974.28;5079564;28;20470;-84
2022/12/28 09:20:10;;;;;;;1999.90;999.90;;;;;;;6.48;100.00;98977.53;5077732;28;20409;-88
2022/12/28 09:22:35;;;;;;;1999.90;999.90;;;;;;;6.51;100.00;98976.22;5079479;28;20084;-85
2022/12/28 09:25:00;;;;;;;1999.90;999.90;;;;;;;6.58;100.00;98976.88;5078563;28;20029;-83
2022/12/28 09:27:26;;;;;;;1999.90;999.90;;;;;;;6.53;100.00;98968.63;5076668;28;20032;-84
2022/12/28 09:29:51;;;;;;;1999.90;999.90;;;;;;;6.63;100.00;98971.53;5079613;28;20116;-85
2022/12/28 09:32:16;;;;;;;1999.90;999.90;;;;;;;6.70;100.00;98967.59;5085508;28;20021;-85
2022/12/28 09:34:41;;;;;;;1999.90;999.90;;;;;;;6.76;100.00;98965.78;5086223;28;20024;-83
2022/12/28 09:37:07;;;;;;;1999.90;999.90;;;;;;;6.84;100.00;98954.50;5088066;28;20058;-83
2022/12/28 09:39:33;;;;;;;1999.90;999.90;;;;;;;6.85;100.00;98965.16;5088355;28;20035;-84
2022/12/28 09:42:04;;;;;;;1999.90;999.90;;;;;;;6.96;100.00;98971.56;5084582;28;20013;-83
2022/12/28 09:45:07;;;;;;;1999.90;999.90;;;;;;;6.96;100.00;98964.22;5080418;28;20055;-85
2022/12/28 09:47:37;;;;;;;1999.90;999.90;;;;;;;7.36;100.00;98961.31;5075913;28;20027;-81
2022/12/28 09:50:15;;;;;;;1999.90;999.90;;;;;;;7.66;100.00;98965.53;5076039;28;20028;-87
2022/12/28 09:53:07;;;;;;;1999.90;999.90;;;;;;;8.04;100.00;98970.97;5080278;28;20037;-86
2022/12/28 09:55:35;;;;;;;1999.90;999.90;;;;;;;7.93;100.00;98956.38;5080371;28;20059;-82
2022/12/28 09:58:02;;;;;;;1999.90;999.90;;;;;;;7.94;100.00;98951.75;5082566;28;20036;-83
2022/12/28 10:00:44;;;;;;;1999.90;999.90;;;;;;;8.49;100.00;98960.59;5084047;28;20048;-84
2022/12/28 10:03:15;;;;;;;1999.90;999.90;;;;;;;8.68;100.00;98949.34;5083474;28;20021;-82
2022/12/28 10:05:41;;;;;;;1999.90;999.90;;;;;;;8.86;100.00;98944.31;5084810;28;20028;-77
2022/12/28 10:08:11;;;;;;;1999.90;999.90;;;;;;;8.74;100.00;98953.75;5070821;28;20032;-82
2022/12/28 10:10:39;;;;;;;1999.90;999.90;;;;;;;8.70;100.00;98947.16;5070959;28;20063;-76
2022/12/28 10:13:18;;;;;;;1999.90;999.90;;;;;;;9.25;100.00;98952.25;5070713;28;20091;-80
2022/12/28 10:15:44;;;;;;;1999.90;999.90;;;;;;;9.58;100.00;98954.69;5069114;28;20024;-75
2022/12/28 10:18:12;;;;;;;1999.90;999.90;;;;;;;10.15;100.00;98960.97;5070611;28;20070;-79
2022/12/28 10:20:39;;;;;;;1999.90;999.90;;;;;;;10.30;100.00;98952.03;5070562;28;20023;-75
2022/12/28 10:23:05;;;;;;;1999.90;999.90;;;;;;;9.88;100.00;98956.72;5073877;28;20370;-78
2022/12/28 10:25:31;;;;;;;1999.90;999.90;;;;;;;9.70;100.00;98949.81;5073302;28;20028;-75
2022/12/28 10:27:59;;;;;;;1999.90;999.90;;;;;;;9.75;100.00;98954.47;5074266;28;20031;-75
2022/12/28 10:30:25;;;;;;;1999.90;999.90;;;;;;;9.58;100.00;98947.31;5074135;28;20029;-76
2022/12/28 10:32:54;;;;;;;1999.90;999.90;;;;;;;9.58;100.00;98938.28;5074459;28;20025;-80
2022/12/28 10:35:29;;;;;;;1999.90;999.90;;;;;;;9.71;100.00;98942.44;5073445;28;20029;-76
2022/12/28 10:38:15;;;;;;;;;;;;;;;9.30;100.00;98936.75;5072163;28;20048;-79
2022/12/28 10:40:40;;;;;;;1999.90;999.90;;;;;;;8.69;100.00;98919.06;5077691;28;19923;-75
2022/12/28 10:43:18;;;;;;;1999.90;999.90;;;;;;;8.40;100.00;98929.41;5075979;28;20037;-77
2022/12/28 10:45:51;;;;;;;1999.90;999.90;;;;;;;8.91;100.00;98925.25;5075122;28;20025;-75
2022/12/28 10:48:27;;;;;;;1999.90;999.90;;;;;;;9.03;100.00;98912.25;5066578;28;20374;-78
2022/12/28 10:51:15;;;;;;;1999.90;999.90;;;;;;;9.07;100.00;98913.38;5073028;28;20025;-77
2022/12/28 10:53:48;;;;;;;1999.90;999.90;;;;;;;9.11;100.00;98913.69;5094913;28;20108;-75
2022/12/28 10:56:13;;;;;;;1999.90;999.90;;;;;;;9.04;100.00;98907.63;5073667;28;20020;-75
2022/12/28 10:58:43;;;;;;;1999.90;999.90;;;;;;;9.20;100.00;98895.72;5074013;28;20028;-75
2022/12/28 11:01:12;;;;;;;1999.90;999.90;;;;;;;9.64;100.00;98897.06;5077711;28;20032;-83
2022/12/28 11:03:54;;;;;;;1999.90;999.90;;;;;;;9.45;100.00;98889.59;5082364;28;20856;-77
2022/12/28 11:06:22;;;;;;;1999.90;999.90;;;;;;;9.46;100.00;98883.06;5074598;28;20047;-74
2022/12/28 11:09:14;;;;;;;1999.90;999.90;;;;;;;8.91;100.00;98876.16;5081621;28;20047;-76
2022/12/28 11:11:40;;;;;;;1999.90;999.90;;;;;;;9.20;100.00;98862.16;5075678;28;20033;-77
2022/12/28 11:14:15;;;;;;;1999.90;999.90;;;;;;;9.75;100.00;98870.59;5076831;28;20124;-77
2022/12/28 11:16:42;;;;;;;1999.90;999.90;;;;;;;9.74;100.00;98862.69;5081621;28;20016;-76
2022/12/28 11:19:07;;;;;;;1999.90;999.90;;;;;;;9.88;100.00;98858.34;5080726;28;20280;-74
2022/12/28 11:21:34;;;;;;;1999.90;999.90;;;;;;;9.68;100.00;98859.94;5078253;28;20028;-74
2022/12/28 11:23:59;;;;;;;1999.90;999.90;;;;;;;9.31;100.00;98864.66;5076909;28;20028;-76
2022/12/28 11:26:27;;;;;;;1999.90;999.90;;;;;;;9.26;100.00;98866.56;5087021;28;20094;-76